sensor_id;sensor_type;location;lat;lon;timestamp;pressure;altitude;pressure_sealevel;temperature;humidity
7168;BME280;3625;51.762;14.320;2022-08-03T00:00:40;100794.25;;;18.17;81.96
7168;BME280;3625;51.762;14.320;2022-08-03T00:03:09;100705.66;;;17.66;82.61
7168;BME280;3625;51.762;14.320;2022-08-03T00:05:38;100764.75;;;17.99;82.60
7168;BME280;3625;51.762;14.320;2022-08-03T00:08:28;100786.66;;;18.07;82.27
7168;BME280;3625;51.762;14.320;2022-08-03T00:10:59;100788.78;;;18.01;82.75
7168;BME280;3625;51.762;14.320;2022-08-03T00:13:28;100742.94;;;17.71;82.89
7168;BME280;3625;51.762;14.320;2022-08-03T00:15:57;100775.88;;;17.90;83.17
7168;BME280;3625;51.762;14.320;2022-08-03T00:18:26;100777.94;;;17.85;83.21
7168;BME280;3625;51.762;14.320;2022-08-03T00:20:55;100773.75;;;17.80;83.32
7168;BME280;3625;51.762;14.320;2022-08-03T00:23:24;100781.03;;;17.76;83.84
7168;BME280;3625;51.762;14.320;2022-08-03T00:26:14;100777.66;;;17.73;84.36
7168;BME280;3625;51.762;14.320;2022-08-03T00:28:43;100769.69;;;17.71;84.37
7168;BME280;3625;51.762;14.320;2022-08-03T00:31:12;100766.06;;;17.72;84.45
7168;BME280;3625;51.762;14.320;2022-08-03T00:33:41;100766.94;;;17.73;84.93
7168;BME280;3625;51.762;14.320;2022-08-03T00:36:26;100766.84;;;17.74;84.85
7168;BME280;3625;51.762;14.320;2022-08-03T00:38:56;100772.31;;;17.73;85.11
7168;BME280;3625;51.762;14.320;2022-08-03T00:41:26;100546.44;;;16.44;85.11
7168;BME280;3625;51.762;14.320;2022-08-03T00:43:55;100777.72;;;17.71;85.45
7168;BME280;3625;51.762;14.320;2022-08-03T00:46:24;100766.13;;;17.70;85.84
7168;BME280;3625;51.762;14.320;2022-08-03T00:48:53;100540.41;;;16.40;85.80
7168;BME280;3625;51.762;14.320;2022-08-03T00:51:23;100765.41;;;17.67;86.13
7168;BME280;3625;51.762;14.320;2022-08-03T00:53:52;100768.31;;;17.62;86.32
7168;BME280;3625;51.762;14.320;2022-08-03T00:56:21;100763.28;;;17.55;86.33
7168;BME280;3625;51.762;14.320;2022-08-03T00:58:54;100759.13;;;17.48;86.92
7168;BME280;3625;51.762;14.320;2022-08-03T01:01:24;100759.41;;;17.42;87.49
7168;BME280;3625;51.762;14.320;2022-08-03T01:03:58;100743.38;;;17.21;87.83
7168;BME280;3625;51.762;14.320;2022-08-03T01:06:41;100757.97;;;17.34;88.14
7168;BME280;3625;51.762;14.320;2022-08-03T01:09:19;100722.44;;;17.12;88.34
7168;BME280;3625;51.762;14.320;2022-08-03T01:11:56;100636.50;;;16.60;88.50
7168;BME280;3625;51.762;14.320;2022-08-03T01:14:44;100759.03;;;17.30;88.56
7168;BME280;3625;51.762;14.320;2022-08-03T01:17:22;100733.13;;;17.12;89.05
7168;BME280;3625;51.762;14.320;2022-08-03T01:19:59;100737.63;;;17.12;89.16
7168;BME280;3625;51.762;14.320;2022-08-03T01:23:05;100737.50;;;17.13;88.92
7168;BME280;3625;51.762;14.320;2022-08-03T01:25:58;100720.50;;;16.95;89.19
7168;BME280;3625;51.762;14.320;2022-08-03T01:29:01;100760.47;;;17.19;89.53
7168;BME280;3625;51.762;14.320;2022-08-03T01:31:39;100764.13;;;17.16;89.94
7168;BME280;3625;51.762;14.320;2022-08-03T01:34:37;100722.44;;;16.92;90.39
7168;BME280;3625;51.762;14.320;2022-08-03T01:37:11;100763.53;;;17.10;90.58
7168;BME280;3625;51.762;14.320;2022-08-03T01:39:44;100771.75;;;17.05;90.77
7168;BME280;3625;51.762;14.320;2022-08-03T01:42:16;100764.88;;;17.00;91.06
7168;BME280;3625;51.762;14.320;2022-08-03T01:44:47;100762.41;;;16.95;91.24
7168;BME280;3625;51.762;14.320;2022-08-03T01:47:21;100762.41;;;16.95;91.51
7168;BME280;3625;51.762;14.320;2022-08-03T01:49:53;100730.06;;;16.81;91.55
7168;BME280;3625;51.762;14.320;2022-08-03T01:52:25;100761.53;;;16.94;91.74
7168;BME280;3625;51.762;14.320;2022-08-03T01:54:55;100737.34;;;16.77;91.63
7168;BME280;3625;51.762;14.320;2022-08-03T01:57:28;100762.66;;;16.89;91.94
7168;BME280;3625;51.762;14.320;2022-08-03T02:00:03;100702.69;;;16.54;92.12
7168;BME280;3625;51.762;14.320;2022-08-03T02:02:41;100764.69;;;16.84;92.23
7168;BME280;3625;51.762;14.320;2022-08-03T02:05:14;100761.31;;;16.79;92.57
7168;BME280;3625;51.762;14.320;2022-08-03T02:07:46;100764.13;;;16.76;92.52
7168;BME280;3625;51.762;14.320;2022-08-03T02:10:19;100757.06;;;16.75;92.97
7168;BME280;3625;51.762;14.320;2022-08-03T02:13:04;100737.19;;;16.60;93.11
7168;BME280;3625;51.762;14.320;2022-08-03T02:15:36;100709.44;;;16.42;92.98
7168;BME280;3625;51.762;14.320;2022-08-03T02:18:09;100755.75;;;16.63;93.46
7168;BME280;3625;51.762;14.320;2022-08-03T02:20:41;100756.31;;;16.71;93.64
7168;BME280;3625;51.762;14.320;2022-08-03T02:23:11;100756.25;;;16.73;93.55
7168;BME280;3625;51.762;14.320;2022-08-03T02:25:52;100751.78;;;16.73;93.61
7168;BME280;3625;51.762;14.320;2022-08-03T02:28:30;100677.03;;;16.30;93.60
7168;BME280;3625;51.762;14.320;2022-08-03T02:31:04;100750.31;;;16.66;93.80
7168;BME280;3625;51.762;14.320;2022-08-03T02:33:42;100694.53;;;16.37;93.93
7168;BME280;3625;51.762;14.320;2022-08-03T02:36:13;100732.69;;;16.60;94.17
7168;BME280;3625;51.762;14.320;2022-08-03T02:38:48;100712.19;;;16.41;94.54
7168;BME280;3625;51.762;14.320;2022-08-03T02:41:28;100747.88;;;16.60;94.84
7168;BME280;3625;51.762;14.320;2022-08-03T02:44:06;100582.69;;;15.67;95.03
7168;BME280;3625;51.762;14.320;2022-08-03T02:46:40;100740.97;;;16.54;95.17
7168;BME280;3625;51.762;14.320;2022-08-03T02:49:15;100719.84;;;16.48;94.96
7168;BME280;3625;51.762;14.320;2022-08-03T02:52:09;100744.44;;;16.56;95.26
7168;BME280;3625;51.762;14.320;2022-08-03T02:54:45;100742.22;;;16.46;95.14
7168;BME280;3625;51.762;14.320;2022-08-03T02:57:16;100700.63;;;16.18;95.48
7168;BME280;3625;51.762;14.320;2022-08-03T02:59:46;100751.16;;;16.45;95.67
7168;BME280;3625;51.762;14.320;2022-08-03T03:02:17;100750.28;;;16.44;95.97
7168;BME280;3625;51.762;14.320;2022-08-03T03:04:51;100744.28;;;16.39;96.25
7168;BME280;3625;51.762;14.320;2022-08-03T03:07:41;100757.69;;;16.38;96.31
7168;BME280;3625;51.762;14.320;2022-08-03T03:10:21;100708.84;;;16.14;96.46
7168;BME280;3625;51.762;14.320;2022-08-03T03:12:54;100752.41;;;16.36;96.71
7168;BME280;3625;51.762;14.320;2022-08-03T03:15:26;100753.34;;;16.35;96.51
7168;BME280;3625;51.762;14.320;2022-08-03T03:17:56;100752.47;;;16.35;96.82
7168;BME280;3625;51.762;14.320;2022-08-03T03:20:28;100748.13;;;16.32;96.91
7168;BME280;3625;51.762;14.320;2022-08-03T03:22:59;100749.94;;;16.32;96.94
7168;BME280;3625;51.762;14.320;2022-08-03T03:25:31;100752.59;;;16.32;97.06
7168;BME280;3625;51.762;14.320;2022-08-03T03:28:01;100754.34;;;16.33;97.06
7168;BME280;3625;51.762;14.320;2022-08-03T03:30:33;100630.91;;;15.62;97.12
7168;BME280;3625;51.762;14.320;2022-08-03T03:33:02;100749.88;;;16.33;97.32
7168;BME280;3625;51.762;14.320;2022-08-03T03:35:33;100747.06;;;16.36;97.46
7168;BME280;3625;51.762;14.320;2022-08-03T03:38:06;100721.13;;;16.18;97.36
7168;BME280;3625;51.762;14.320;2022-08-03T03:40:34;100754.03;;;16.40;97.59
7168;BME280;3625;51.762;14.320;2022-08-03T03:43:07;100744.22;;;16.41;97.57
7168;BME280;3625;51.762;14.320;2022-08-03T03:45:36;100752.03;;;16.45;97.51
7168;BME280;3625;51.762;14.320;2022-08-03T03:48:09;100704.13;;;16.20;97.64
7168;BME280;3625;51.762;14.320;2022-08-03T03:50:40;100750.78;;;16.54;97.58
7168;BME280;3625;51.762;14.320;2022-08-03T03:53:10;100752.41;;;16.58;97.53
7168;BME280;3625;51.762;14.320;2022-08-03T03:55:40;100745.38;;;16.55;96.98
7168;BME280;3625;51.762;14.320;2022-08-03T03:58:30;100752.16;;;16.64;97.21
7168;BME280;3625;51.762;14.320;2022-08-03T04:00:59;100714.47;;;16.50;97.16
7168;BME280;3625;51.762;14.320;2022-08-03T04:03:28;100751.72;;;16.75;96.99
7168;BME280;3625;51.762;14.320;2022-08-03T04:05:58;100749.63;;;16.81;96.80
7168;BME280;3625;51.762;14.320;2022-08-03T04:08:48;100753.84;;;16.87;96.66
7168;BME280;3625;51.762;14.320;2022-08-03T04:11:40;100721.38;;;16.76;96.55
7168;BME280;3625;51.762;14.320;2022-08-03T04:14:15;100704.66;;;16.71;96.03
7168;BME280;3625;51.762;14.320;2022-08-03T04:16:49;100764.25;;;17.13;96.04
7168;BME280;3625;51.762;14.320;2022-08-03T04:19:27;100733.44;;;17.05;95.57
7168;BME280;3625;51.762;14.320;2022-08-03T04:22:03;100765.47;;;17.26;95.64
7168;BME280;3625;51.762;14.320;2022-08-03T04:24:38;100558.38;;;16.16;95.15
7168;BME280;3625;51.762;14.320;2022-08-03T04:27:13;100759.47;;;17.40;95.12
7168;BME280;3625;51.762;14.320;2022-08-03T04:29:48;100766.44;;;17.44;94.93
7168;BME280;3625;51.762;14.320;2022-08-03T04:32:20;100762.91;;;17.44;94.98
7168;BME280;3625;51.762;14.320;2022-08-03T04:34:52;100765.28;;;17.50;94.95
7168;BME280;3625;51.762;14.320;2022-08-03T04:37:33;100714.72;;;17.25;94.73
7168;BME280;3625;51.762;14.320;2022-08-03T04:40:08;100758.81;;;17.55;94.99
7168;BME280;3625;51.762;14.320;2022-08-03T04:42:39;100678.69;;;16.94;94.80
7168;BME280;3625;51.762;14.320;2022-08-03T04:45:12;100780.59;;;17.66;94.97
7168;BME280;3625;51.762;14.320;2022-08-03T04:47:43;100762.59;;;17.70;94.83
7168;BME280;3625;51.762;14.320;2022-08-03T04:50:12;100766.66;;;17.79;94.62
7168;BME280;3625;51.762;14.320;2022-08-03T04:53:05;100760.34;;;17.80;94.44
7168;BME280;3625;51.762;14.320;2022-08-03T04:55:34;100782.28;;;17.88;94.20
7168;BME280;3625;51.762;14.320;2022-08-03T04:58:04;100739.22;;;17.73;94.22
7168;BME280;3625;51.762;14.320;2022-08-03T05:00:33;100784.22;;;18.03;94.19
7168;BME280;3625;51.762;14.320;2022-08-03T05:03:02;100769.16;;;18.00;93.97
7168;BME280;3625;51.762;14.320;2022-08-03T05:05:50;100781.53;;;18.22;93.86
7168;BME280;3625;51.762;14.320;2022-08-03T05:08:37;100645.31;;;17.59;93.04
7168;BME280;3625;51.762;14.320;2022-08-03T05:11:13;100741.47;;;18.37;92.74
7168;BME280;3625;51.762;14.320;2022-08-03T05:13:42;100767.47;;;18.71;92.04
7168;BME280;3625;51.762;14.320;2022-08-03T05:16:12;100776.06;;;18.95;91.41
7168;BME280;3625;51.762;14.320;2022-08-03T05:18:41;100794.56;;;19.34;90.63
7168;BME280;3625;51.762;14.320;2022-08-03T05:21:12;100791.72;;;19.54;90.23
7168;BME280;3625;51.762;14.320;2022-08-03T05:23:44;100784.28;;;19.59;89.03
7168;BME280;3625;51.762;14.320;2022-08-03T05:26:13;100804.13;;;19.73;88.78
7168;BME280;3625;51.762;14.320;2022-08-03T05:28:42;100755.84;;;19.55;88.21
7168;BME280;3625;51.762;14.320;2022-08-03T05:31:18;100797.59;;;19.94;88.25
7168;BME280;3625;51.762;14.320;2022-08-03T05:33:47;100795.19;;;20.05;88.11
7168;BME280;3625;51.762;14.320;2022-08-03T05:36:15;100778.88;;;20.08;87.78
7168;BME280;3625;51.762;14.320;2022-08-03T05:38:45;100793.03;;;20.43;87.32
7168;BME280;3625;51.762;14.320;2022-08-03T05:41:14;100789.81;;;20.52;86.64
7168;BME280;3625;51.762;14.320;2022-08-03T05:43:50;100766.75;;;20.48;86.23
7168;BME280;3625;51.762;14.320;2022-08-03T05:46:20;100796.47;;;20.61;86.19
7168;BME280;3625;51.762;14.320;2022-08-03T05:48:50;100799.53;;;20.55;86.16
7168;BME280;3625;51.762;14.320;2022-08-03T05:51:19;100793.53;;;20.50;86.48
7168;BME280;3625;51.762;14.320;2022-08-03T05:53:50;100793.53;;;20.50;86.71
7168;BME280;3625;51.762;14.320;2022-08-03T05:56:22;100775.53;;;20.36;86.72
7168;BME280;3625;51.762;14.320;2022-08-03T05:58:52;100805.06;;;20.52;86.66
7168;BME280;3625;51.762;14.320;2022-08-03T06:01:21;100803.75;;;20.59;86.71
7168;BME280;3625;51.762;14.320;2022-08-03T06:03:50;100758.34;;;20.39;86.52
7168;BME280;3625;51.762;14.320;2022-08-03T06:06:20;100816.31;;;20.74;86.40
7168;BME280;3625;51.762;14.320;2022-08-03T06:08:50;100789.50;;;20.73;86.00
7168;BME280;3625;51.762;14.320;2022-08-03T06:11:19;100810.72;;;20.93;85.66
7168;BME280;3625;51.762;14.320;2022-08-03T06:13:48;100808.31;;;21.02;85.44
7168;BME280;3625;51.762;14.320;2022-08-03T06:16:17;100790.56;;;21.00;85.02
7168;BME280;3625;51.762;14.320;2022-08-03T06:18:46;100818.03;;;21.21;84.47
7168;BME280;3625;51.762;14.320;2022-08-03T06:21:15;100780.13;;;21.09;83.97
7168;BME280;3625;51.762;14.320;2022-08-03T06:23:44;100813.25;;;21.40;83.28
7168;BME280;3625;51.762;14.320;2022-08-03T06:26:27;100805.31;;;21.53;82.65
7168;BME280;3625;51.762;14.320;2022-08-03T06:28:56;100810.00;;;21.63;81.70
7168;BME280;3625;51.762;14.320;2022-08-03T06:31:26;100809.41;;;21.72;80.58
7168;BME280;3625;51.762;14.320;2022-08-03T06:34:02;100818.56;;;21.84;79.72
7168;BME280;3625;51.762;14.320;2022-08-03T06:36:51;100811.19;;;22.02;78.94
7168;BME280;3625;51.762;14.320;2022-08-03T06:39:28;100817.72;;;22.12;77.94
7168;BME280;3625;51.762;14.320;2022-08-03T06:41:58;100818.00;;;22.22;77.52
7168;BME280;3625;51.762;14.320;2022-08-03T06:44:27;100820.84;;;22.33;76.86
7168;BME280;3625;51.762;14.320;2022-08-03T06:46:55;100808.72;;;22.40;76.49
7168;BME280;3625;51.762;14.320;2022-08-03T06:49:25;100819.84;;;22.48;76.22
7168;BME280;3625;51.762;14.320;2022-08-03T06:51:54;100822.50;;;22.62;75.53
7168;BME280;3625;51.762;14.320;2022-08-03T06:54:30;100820.91;;;22.72;75.10
7168;BME280;3625;51.762;14.320;2022-08-03T06:57:01;100779.75;;;22.56;74.44
7168;BME280;3625;51.762;14.320;2022-08-03T06:59:30;100824.25;;;22.90;73.86
7168;BME280;3625;51.762;14.320;2022-08-03T07:02:18;100828.88;;;23.01;73.27
7168;BME280;3625;51.762;14.320;2022-08-03T07:04:48;100820.28;;;23.08;72.99
7168;BME280;3625;51.762;14.320;2022-08-03T07:07:17;100827.78;;;23.17;72.62
7168;BME280;3625;51.762;14.320;2022-08-03T07:09:47;100829.50;;;23.31;72.21
7168;BME280;3625;51.762;14.320;2022-08-03T07:12:26;100780.56;;;23.23;71.21
7168;BME280;3625;51.762;14.320;2022-08-03T07:14:57;100819.41;;;23.60;69.91
7168;BME280;3625;51.762;14.320;2022-08-03T07:17:30;100817.09;;;23.79;68.82
7168;BME280;3625;51.762;14.320;2022-08-03T07:20:04;100810.19;;;23.88;68.15
7168;BME280;3625;51.762;14.320;2022-08-03T07:22:34;100775.94;;;23.76;67.78
7168;BME280;3625;51.762;14.320;2022-08-03T07:25:04;100811.91;;;24.01;67.71
7168;BME280;3625;51.762;14.320;2022-08-03T07:27:35;100802.38;;;24.08;67.48
7168;BME280;3625;51.762;14.320;2022-08-03T07:30:07;100775.91;;;24.01;67.20
7168;BME280;3625;51.762;14.320;2022-08-03T07:32:36;100816.31;;;24.28;66.48
7168;BME280;3625;51.762;14.320;2022-08-03T07:35:17;100814.50;;;24.39;65.20
7168;BME280;3625;51.762;14.320;2022-08-03T07:37:51;100820.75;;;24.53;64.98
7168;BME280;3625;51.762;14.320;2022-08-03T07:40:22;100814.44;;;24.65;64.35
7168;BME280;3625;51.762;14.320;2022-08-03T07:43:00;100792.91;;;24.63;62.99
7168;BME280;3625;51.762;14.320;2022-08-03T07:45:31;100812.69;;;24.88;62.53
7168;BME280;3625;51.762;14.320;2022-08-03T07:48:02;100811.16;;;24.96;62.25
7168;BME280;3625;51.762;14.320;2022-08-03T07:50:39;100791.34;;;24.96;59.66
7168;BME280;3625;51.762;14.320;2022-08-03T07:53:09;100724.28;;;24.75;57.17
7168;BME280;3625;51.762;14.320;2022-08-03T07:55:39;100774.06;;;25.21;56.30
7168;BME280;3625;51.762;14.320;2022-08-03T07:58:12;100777.41;;;25.35;54.51
7168;BME280;3625;51.762;14.320;2022-08-03T08:00:53;100802.63;;;25.60;53.00
7168;BME280;3625;51.762;14.320;2022-08-03T08:03:24;100799.03;;;25.70;52.47
7168;BME280;3625;51.762;14.320;2022-08-03T08:05:54;100752.06;;;25.47;51.52
7168;BME280;3625;51.762;14.320;2022-08-03T08:08:28;100693.28;;;25.26;50.48
7168;BME280;3625;51.762;14.320;2022-08-03T08:10:58;100658.72;;;25.07;51.45
7168;BME280;3625;51.762;14.320;2022-08-03T08:13:31;100671.38;;;25.29;50.74
7168;BME280;3625;51.762;14.320;2022-08-03T08:16:10;100779.44;;;26.00;50.28
7168;BME280;3625;51.762;14.320;2022-08-03T08:18:45;100556.41;;;24.88;46.31
7168;BME280;3625;51.762;14.320;2022-08-03T08:21:18;100765.38;;;26.28;47.25
7168;BME280;3625;51.762;14.320;2022-08-03T08:23:52;100785.53;;;26.47;47.26
7168;BME280;3625;51.762;14.320;2022-08-03T08:26:25;100761.50;;;26.42;47.35
7168;BME280;3625;51.762;14.320;2022-08-03T08:28:57;100755.94;;;26.44;46.37
7168;BME280;3625;51.762;14.320;2022-08-03T08:31:27;100783.88;;;26.66;46.65
7168;BME280;3625;51.762;14.320;2022-08-03T08:33:57;100763.78;;;26.58;46.64
7168;BME280;3625;51.762;14.320;2022-08-03T08:36:34;100786.41;;;26.79;44.50
7168;BME280;3625;51.762;14.320;2022-08-03T08:39:04;100771.44;;;26.85;44.67
7168;BME280;3625;51.762;14.320;2022-08-03T08:41:33;100791.56;;;26.93;45.24
7168;BME280;3625;51.762;14.320;2022-08-03T08:44:06;100783.41;;;26.93;44.61
7168;BME280;3625;51.762;14.320;2022-08-03T08:46:38;100787.31;;;27.00;45.48
7168;BME280;3625;51.762;14.320;2022-08-03T08:49:09;100784.34;;;27.03;45.49
7168;BME280;3625;51.762;14.320;2022-08-03T08:51:45;100782.75;;;27.01;45.82
7168;BME280;3625;51.762;14.320;2022-08-03T08:54:30;100789.00;;;27.13;45.18
7168;BME280;3625;51.762;14.320;2022-08-03T08:57:03;100782.69;;;27.12;45.29
7168;BME280;3625;51.762;14.320;2022-08-03T08:59:57;100792.34;;;27.26;45.30
7168;BME280;3625;51.762;14.320;2022-08-03T09:02:30;100797.47;;;27.40;45.11
7168;BME280;3625;51.762;14.320;2022-08-03T09:05:02;100790.50;;;27.47;44.50
7168;BME280;3625;51.762;14.320;2022-08-03T09:07:35;100785.31;;;27.44;44.29
7168;BME280;3625;51.762;14.320;2022-08-03T09:10:09;100792.44;;;27.56;44.16
7168;BME280;3625;51.762;14.320;2022-08-03T09:12:44;100787.88;;;27.57;44.02
7168;BME280;3625;51.762;14.320;2022-08-03T09:15:22;100739.22;;;27.33;43.35
7168;BME280;3625;51.762;14.320;2022-08-03T09:17:55;100781.75;;;27.64;42.79
7168;BME280;3625;51.762;14.320;2022-08-03T09:20:29;100756.47;;;27.53;43.13
7168;BME280;3625;51.762;14.320;2022-08-03T09:23:02;100773.53;;;27.75;43.29
7168;BME280;3625;51.762;14.320;2022-08-03T09:25:58;100765.63;;;27.72;43.29
7168;BME280;3625;51.762;14.320;2022-08-03T09:28:35;100749.75;;;27.77;42.90
7168;BME280;3625;51.762;14.320;2022-08-03T09:31:34;100783.72;;;28.23;42.33
7168;BME280;3625;51.762;14.320;2022-08-03T09:34:05;100784.63;;;28.33;42.71
7168;BME280;3625;51.762;14.320;2022-08-03T09:36:37;100779.03;;;28.35;42.38
7168;BME280;3625;51.762;14.320;2022-08-03T09:39:08;100764.66;;;28.23;42.27
7168;BME280;3625;51.762;14.320;2022-08-03T09:41:39;100778.28;;;28.23;41.29
7168;BME280;3625;51.762;14.320;2022-08-03T09:44:08;100774.00;;;28.30;40.75
7168;BME280;3625;51.762;14.320;2022-08-03T09:46:54;100770.28;;;28.41;41.00
7168;BME280;3625;51.762;14.320;2022-08-03T09:49:23;100766.56;;;28.42;41.11
7168;BME280;3625;51.762;14.320;2022-08-03T09:51:53;100715.50;;;28.15;41.11
7168;BME280;3625;51.762;14.320;2022-08-03T09:54:43;100722.28;;;28.30;40.63
7168;BME280;3625;51.762;14.320;2022-08-03T09:57:23;100765.88;;;28.69;40.49
7168;BME280;3625;51.762;14.320;2022-08-03T09:59:53;100760.00;;;28.73;41.20
7168;BME280;3625;51.762;14.320;2022-08-03T10:02:43;100759.13;;;28.73;41.12
7168;BME280;3625;51.762;14.320;2022-08-03T10:05:13;100749.41;;;28.70;41.14
7168;BME280;3625;51.762;14.320;2022-08-03T10:07:47;100731.47;;;28.68;40.34
7168;BME280;3625;51.762;14.320;2022-08-03T10:10:17;100767.63;;;28.99;40.45
7168;BME280;3625;51.762;14.320;2022-08-03T10:12:59;100731.50;;;28.87;39.85
7168;BME280;3625;51.762;14.320;2022-08-03T10:15:28;100758.88;;;28.95;40.44
7168;BME280;3625;51.762;14.320;2022-08-03T10:18:19;100749.97;;;29.03;40.08
7168;BME280;3625;51.762;14.320;2022-08-03T10:20:52;100747.66;;;29.17;39.72
7168;BME280;3625;51.762;14.320;2022-08-03T10:23:23;100733.59;;;29.22;39.16
7168;BME280;3625;51.762;14.320;2022-08-03T10:26:01;100702.78;;;29.12;38.29
7168;BME280;3625;51.762;14.320;2022-08-03T10:28:36;100744.28;;;29.52;38.25
7168;BME280;3625;51.762;14.320;2022-08-03T10:31:13;100742.03;;;29.48;37.77
7168;BME280;3625;51.762;14.320;2022-08-03T10:33:49;100731.41;;;29.45;38.18
7168;BME280;3625;51.762;14.320;2022-08-03T10:36:23;100738.41;;;29.57;38.05
7168;BME280;3625;51.762;14.320;2022-08-03T10:38:52;100737.06;;;29.61;38.49
7168;BME280;3625;51.762;14.320;2022-08-03T10:41:30;100739.06;;;29.69;38.40
7168;BME280;3625;51.762;14.320;2022-08-03T10:44:05;100729.88;;;29.70;38.23
7168;BME280;3625;51.762;14.320;2022-08-03T10:46:38;100737.44;;;29.76;37.77
7168;BME280;3625;51.762;14.320;2022-08-03T10:49:15;100736.00;;;29.81;36.65
7168;BME280;3625;51.762;14.320;2022-08-03T10:52:00;100698.28;;;29.67;36.22
7168;BME280;3625;51.762;14.320;2022-08-03T10:54:42;100727.91;;;29.89;36.06
7168;BME280;3625;51.762;14.320;2022-08-03T10:57:51;100715.56;;;29.95;35.36
7168;BME280;3625;51.762;14.320;2022-08-03T11:00:26;100708.06;;;29.97;34.62
7168;BME280;3625;51.762;14.320;2022-08-03T11:03:09;100719.66;;;30.09;34.55
7168;BME280;3625;51.762;14.320;2022-08-03T11:05:41;100712.22;;;30.19;34.05
7168;BME280;3625;51.762;14.320;2022-08-03T11:08:30;100698.34;;;30.12;34.61
7168;BME280;3625;51.762;14.320;2022-08-03T11:11:25;100708.97;;;30.15;35.03
7168;BME280;3625;51.762;14.320;2022-08-03T11:13:59;100702.78;;;30.13;34.96
7168;BME280;3625;51.762;14.320;2022-08-03T11:16:30;100703.41;;;30.07;35.22
7168;BME280;3625;51.762;14.320;2022-08-03T11:19:04;100700.53;;;30.09;33.91
7168;BME280;3625;51.762;14.320;2022-08-03T11:21:56;100708.41;;;30.12;34.61
7168;BME280;3625;51.762;14.320;2022-08-03T11:25:01;100701.88;;;30.22;34.41
7168;BME280;3625;51.762;14.320;2022-08-03T11:27:32;100706.78;;;30.36;34.30
7168;BME280;3625;51.762;14.320;2022-08-03T11:30:05;100672.84;;;30.21;34.26
7168;BME280;3625;51.762;14.320;2022-08-03T11:32:58;100699.16;;;30.40;34.11
7168;BME280;3625;51.762;14.320;2022-08-03T11:35:29;100691.66;;;30.42;34.88
7168;BME280;3625;51.762;14.320;2022-08-03T11:38:07;100699.72;;;30.44;34.91
7168;BME280;3625;51.762;14.320;2022-08-03T11:40:42;100691.03;;;30.48;34.29
7168;BME280;3625;51.762;14.320;2022-08-03T11:43:45;100676.09;;;30.52;34.02
7168;BME280;3625;51.762;14.320;2022-08-03T11:46:14;100689.81;;;30.60;33.99
7168;BME280;3625;51.762;14.320;2022-08-03T11:49:04;100701.50;;;30.70;33.16
7168;BME280;3625;51.762;14.320;2022-08-03T11:51:37;100692.84;;;30.75;32.33
7168;BME280;3625;51.762;14.320;2022-08-03T11:54:08;100678.16;;;30.76;31.83
7168;BME280;3625;51.762;14.320;2022-08-03T11:56:46;100684.56;;;30.85;32.16
7168;BME280;3625;51.762;14.320;2022-08-03T11:59:16;100684.22;;;30.88;31.99
7168;BME280;3625;51.762;14.320;2022-08-03T12:01:49;100639.81;;;30.60;31.26
7168;BME280;3625;51.762;14.320;2022-08-03T12:04:18;100684.91;;;30.90;31.65
7168;BME280;3625;51.762;14.320;2022-08-03T12:07:01;100681.06;;;31.00;31.64
7168;BME280;3625;51.762;14.320;2022-08-03T12:09:32;100675.53;;;31.10;31.73
7168;BME280;3625;51.762;14.320;2022-08-03T12:12:03;100677.78;;;31.15;32.03
7168;BME280;3625;51.762;14.320;2022-08-03T12:14:32;100685.41;;;31.29;31.98
7168;BME280;3625;51.762;14.320;2022-08-03T12:17:17;100676.09;;;31.47;31.58
7168;BME280;3625;51.762;14.320;2022-08-03T12:19:47;100658.13;;;31.45;31.09
7168;BME280;3625;51.762;14.320;2022-08-03T12:22:17;100671.25;;;31.67;30.63
7168;BME280;3625;51.762;14.320;2022-08-03T12:24:59;100668.66;;;31.66;29.94
7168;BME280;3625;51.762;14.320;2022-08-03T12:27:28;100649.50;;;31.66;29.70
7168;BME280;3625;51.762;14.320;2022-08-03T12:29:58;100665.34;;;31.88;29.72
7168;BME280;3625;51.762;14.320;2022-08-03T12:32:30;100662.09;;;31.93;27.71
7168;BME280;3625;51.762;14.320;2022-08-03T12:34:58;100617.75;;;31.73;27.89
7168;BME280;3625;51.762;14.320;2022-08-03T12:37:31;100643.13;;;31.91;28.37
7168;BME280;3625;51.762;14.320;2022-08-03T12:40:03;100661.09;;;32.02;28.08
7168;BME280;3625;51.762;14.320;2022-08-03T12:42:38;100633.34;;;31.89;28.44
7168;BME280;3625;51.762;14.320;2022-08-03T12:45:22;100648.41;;;32.01;27.13
7168;BME280;3625;51.762;14.320;2022-08-03T12:47:54;100652.38;;;32.06;27.09
7168;BME280;3625;51.762;14.320;2022-08-03T12:50:27;100643.66;;;32.11;27.12
7168;BME280;3625;51.762;14.320;2022-08-03T12:52:59;100640.91;;;32.11;27.20
7168;BME280;3625;51.762;14.320;2022-08-03T12:55:30;100593.34;;;31.96;27.65
7168;BME280;3625;51.762;14.320;2022-08-03T12:58:32;100636.69;;;32.16;26.76
7168;BME280;3625;51.762;14.320;2022-08-03T13:01:03;100646.28;;;32.20;27.74
7168;BME280;3625;51.762;14.320;2022-08-03T13:03:42;100639.78;;;32.21;28.12
7168;BME280;3625;51.762;14.320;2022-08-03T13:06:18;100633.56;;;32.11;28.38
7168;BME280;3625;51.762;14.320;2022-08-03T13:08:48;100641.09;;;32.09;28.54
7168;BME280;3625;51.762;14.320;2022-08-03T13:11:21;100597.41;;;31.83;28.22
7168;BME280;3625;51.762;14.320;2022-08-03T13:14:11;100456.09;;;31.00;28.12
7168;BME280;3625;51.762;14.320;2022-08-03T13:16:47;100626.88;;;32.06;28.30
7168;BME280;3625;51.762;14.320;2022-08-03T13:19:16;100642.84;;;32.18;28.19
7168;BME280;3625;51.762;14.320;2022-08-03T13:21:45;100636.34;;;32.28;28.04
7168;BME280;3625;51.762;14.320;2022-08-03T13:24:31;100644.75;;;32.34;27.92
7168;BME280;3625;51.762;14.320;2022-08-03T13:27:01;100635.53;;;32.43;28.45
7168;BME280;3625;51.762;14.320;2022-08-03T13:29:53;100625.75;;;32.41;28.58
7168;BME280;3625;51.762;14.320;2022-08-03T13:32:22;100614.97;;;32.31;28.43
7168;BME280;3625;51.762;14.320;2022-08-03T13:34:51;100622.00;;;32.42;28.30
7168;BME280;3625;51.762;14.320;2022-08-03T13:37:20;100634.66;;;32.51;28.75
7168;BME280;3625;51.762;14.320;2022-08-03T13:39:49;100634.66;;;32.51;28.17